Portada
METAR-TAF:

METAR-TAF

Aeroports :

Payam

Karaj, Iran

latitud: 35-46-34N, longitud: 050-49-36E, altitud: 1271 m

Observació

L'informe es va fer fa 54 minuts, a les 06:00 UTC
Vent 10 kt del Nord-Oest
Temperatura 3°C
Humitat 100%
Pressió 1016 hPa
Visibilitat: 0020 m
boira

METAR: OIIP 210600Z 32010KT 0020 FG NSC 03/03 Q1016 A3000

Hora: 10:24 (06:54 UTC)


TAF: manca

Observacions i pronòstics meteorològics de més de 4000 aeroports (METAR i TAF).

Les estacions disponibles són els punts grocs i vermells al mapa.

Posi el ratolí al punt desitjat per veure el nom de l'estació.

Feu clic per veure les observacions i els pronòstics meteorològics.

Per canviar el mapa: feu clic els botons verds amb una creu de color negre per apropar; al botó verd amb un guió per allunyar la imatge; o en les fletxes verdes per a mapes adjacents.


METAR-TAF: